createdAt,value
2018-08-17T00:00:57.092Z,51.60
2018-08-17T00:03:25.362Z,51.90
2018-08-17T00:05:53.621Z,51.60
2018-08-17T00:08:22.692Z,51.80
2018-08-17T00:10:51.167Z,51.70
2018-08-17T00:13:19.437Z,51.70
2018-08-17T00:15:47.695Z,51.20
2018-08-17T00:18:15.964Z,51.00
2018-08-17T00:20:44.218Z,51.40
2018-08-17T00:23:12.482Z,51.30
2018-08-17T00:25:41.494Z,51.60
2018-08-17T00:28:09.741Z,51.60
2018-08-17T00:30:38.800Z,51.50
2018-08-17T00:33:07.045Z,51.40
2018-08-17T00:35:35.301Z,51.70
2018-08-17T00:38:03.588Z,52.30
2018-08-17T00:43:07.215Z,51.90
2018-08-17T00:45:35.467Z,51.90
2018-08-17T00:48:03.752Z,52.30
2018-08-17T00:50:32.884Z,52.40
2018-08-17T00:53:01.893Z,52.50
2018-08-17T00:55:30.201Z,52.40
2018-08-17T00:57:58.416Z,52.50
2018-08-17T01:00:27.818Z,52.10
2018-08-17T01:02:56.048Z,52.10
2018-08-17T01:05:25.082Z,52.60
2018-08-17T01:07:53.335Z,52.50
2018-08-17T01:10:21.586Z,52.10
2018-08-17T01:12:50.838Z,52.20
2018-08-17T01:15:19.149Z,52.20
2018-08-17T01:17:47.374Z,52.40
2018-08-17T01:20:15.645Z,52.90
2018-08-17T01:22:43.916Z,53.20
2018-08-17T01:25:12.179Z,54.20
2018-08-17T01:27:40.447Z,54.40
2018-08-17T01:30:08.720Z,55.10
2018-08-17T01:32:37.746Z,54.50
2018-08-17T01:35:06.014Z,54.50
2018-08-17T01:37:34.258Z,54.50
2018-08-17T01:40:02.522Z,54.90
2018-08-17T01:42:31.556Z,54.80
2018-08-17T01:44:59.821Z,54.80
2018-08-17T01:47:28.070Z,54.70
2018-08-17T01:49:57.142Z,53.80
2018-08-17T01:52:25.407Z,53.80
2018-08-17T01:54:53.662Z,53.50
2018-08-17T01:57:22.696Z,54.00
2018-08-17T01:59:51.713Z,54.60
2018-08-17T02:02:19.969Z,54.40
2018-08-17T02:04:48.997Z,54.40
2018-08-17T02:07:17.255Z,54.40
2018-08-17T02:09:46.032Z,54.30
2018-08-17T02:12:14.341Z,53.90
2018-08-17T02:14:42.662Z,54.50
2018-08-17T02:17:11.617Z,54.80
2018-08-17T02:19:39.854Z,54.80
2018-08-17T02:22:08.116Z,54.70
2018-08-17T02:24:37.130Z,54.80
2018-08-17T02:27:05.368Z,54.70
2018-08-17T02:29:34.397Z,55.20
2018-08-17T02:32:02.672Z,55.00
2018-08-17T02:34:30.967Z,55.70
2018-08-17T02:37:00.009Z,55.70
2018-08-17T02:39:28.258Z,55.60
2018-08-17T02:41:56.540Z,55.50
2018-08-17T02:44:24.782Z,55.80
2018-08-17T02:46:53.040Z,55.70
2018-08-17T02:49:21.310Z,55.70
2018-08-17T02:51:50.347Z,55.70
2018-08-17T02:54:19.451Z,55.90
2018-08-17T02:56:47.706Z,55.80
2018-08-17T02:59:16.723Z,56.10
2018-08-17T03:01:44.987Z,55.80
2018-08-17T03:04:13.230Z,56.00
2018-08-17T03:06:41.512Z,55.70
2018-08-17T03:09:10.079Z,55.20
2018-08-17T03:11:38.345Z,55.80
2018-08-17T03:14:10.371Z,55.80
2018-08-17T03:16:38.621Z,55.70
2018-08-17T03:21:41.742Z,55.50
2018-08-17T03:24:10.271Z,55.80
2018-08-17T03:26:38.526Z,55.70
2018-08-17T03:29:07.543Z,55.30
2018-08-17T03:31:36.954Z,55.60
2018-08-17T03:34:05.231Z,55.50
2018-08-17T03:36:33.474Z,55.50
2018-08-17T03:39:02.494Z,55.40
2018-08-17T03:41:30.731Z,55.30
2018-08-17T03:43:59.062Z,55.30
2018-08-17T03:46:27.297Z,55.40
2018-08-17T03:48:55.555Z,55.30
2018-08-17T03:51:24.555Z,55.90
2018-08-17T03:53:52.807Z,55.80
2018-08-17T03:56:21.057Z,56.00
2018-08-17T03:58:50.080Z,56.50
2018-08-17T04:01:18.340Z,56.40
2018-08-17T04:03:46.575Z,56.20
2018-08-17T04:06:14.814Z,56.40
2018-08-17T04:08:43.842Z,55.60
2018-08-17T04:11:12.086Z,55.50
2018-08-17T04:13:41.101Z,56.10
2018-08-17T04:16:09.340Z,56.10
2018-08-17T04:18:38.358Z,56.20
2018-08-17T04:21:06.605Z,56.20
2018-08-17T04:23:35.630Z,56.70
2018-08-17T04:26:03.867Z,56.60
2018-08-17T04:28:32.117Z,56.10
2018-08-17T04:31:00.357Z,56.40
2018-08-17T04:33:28.594Z,56.40
2018-08-17T04:35:57.617Z,56.60
2018-08-17T04:38:25.857Z,56.50
2018-08-17T04:40:54.112Z,56.40
2018-08-17T04:43:22.349Z,56.50
2018-08-17T04:45:50.585Z,56.80
2018-08-17T04:48:19.604Z,57.40
2018-08-17T04:50:47.847Z,57.30
2018-08-17T04:53:16.463Z,57.30
2018-08-17T04:55:44.714Z,57.40
2018-08-17T04:58:13.727Z,57.50
2018-08-17T05:00:41.978Z,57.30
2018-08-17T05:03:10.987Z,57.50
2018-08-17T05:05:40.271Z,57.60
2018-08-17T05:08:08.498Z,57.60
2018-08-17T05:10:36.733Z,57.60
2018-08-17T05:13:05.902Z,57.60
2018-08-17T05:15:34.144Z,57.60
2018-08-17T05:18:02.400Z,57.70
2018-08-17T05:20:30.637Z,58.20
2018-08-17T05:22:59.689Z,58.10
2018-08-17T05:25:27.929Z,58.10
2018-08-17T05:27:56.176Z,58.10
2018-08-17T05:30:24.430Z,58.20
2018-08-17T05:32:52.677Z,58.40
2018-08-17T05:35:20.930Z,58.90
2018-08-17T05:37:49.171Z,58.60
2018-08-17T05:40:17.410Z,59.30
2018-08-17T05:42:45.661Z,59.60
2018-08-17T05:45:13.948Z,59.10
2018-08-17T05:47:42.913Z,58.50
2018-08-17T05:50:11.167Z,58.50
2018-08-17T05:52:39.402Z,58.30
2018-08-17T05:55:08.431Z,58.30
2018-08-17T05:57:36.677Z,58.30
2018-08-17T06:00:04.957Z,58.40
2018-08-17T06:02:33.438Z,57.60
2018-08-17T06:05:01.689Z,58.10
2018-08-17T06:07:29.931Z,58.30
2018-08-17T06:09:58.949Z,56.80
2018-08-17T06:12:27.200Z,56.80
2018-08-17T06:14:55.445Z,57.00
2018-08-17T06:17:23.697Z,57.00
2018-08-17T06:19:51.946Z,57.50
2018-08-17T06:22:20.218Z,57.20
2018-08-17T06:24:48.477Z,57.20
2018-08-17T06:27:16.733Z,57.30
2018-08-17T06:29:45.747Z,56.10
2018-08-17T06:32:14.247Z,56.10
2018-08-17T06:34:42.563Z,57.20
2018-08-17T06:37:10.831Z,54.50
2018-08-17T06:39:39.174Z,55.00
2018-08-17T06:42:07.430Z,54.00
2018-08-17T06:44:35.682Z,53.50
2018-08-17T06:47:03.973Z,53.50
2018-08-17T06:49:32.236Z,53.90
2018-08-17T06:52:00.481Z,53.30
2018-08-17T06:54:28.730Z,53.80
2018-08-17T06:56:57.019Z,52.30
2018-08-17T06:59:25.335Z,52.40
2018-08-17T07:01:54.054Z,52.50
2018-08-17T07:04:22.301Z,52.70
2018-08-17T07:06:51.301Z,52.90
2018-08-17T07:09:20.636Z,52.60
2018-08-17T07:11:48.865Z,52.60
2018-08-17T07:14:19.061Z,51.70
2018-08-17T07:16:47.344Z,51.70
2018-08-17T07:19:15.566Z,50.80
2018-08-17T07:21:43.844Z,50.30
2018-08-17T07:24:13.083Z,49.20
2018-08-17T07:26:41.326Z,49.20
2018-08-17T07:29:09.574Z,47.70
2018-08-17T07:31:37.822Z,47.90
2018-08-17T07:34:06.350Z,48.00
2018-08-17T07:36:34.584Z,47.30
2018-08-17T07:39:03.626Z,45.20
2018-08-17T07:41:31.871Z,45.20
2018-08-17T07:44:00.871Z,45.00
2018-08-17T07:46:29.117Z,44.90
2018-08-17T07:48:58.150Z,44.80
2018-08-17T07:51:26.410Z,44.80
2018-08-17T07:53:54.643Z,44.40
2018-08-17T07:56:22.934Z,44.30
2018-08-17T07:58:51.941Z,42.70
2018-08-17T08:01:20.946Z,42.70
2018-08-17T08:03:49.196Z,42.60
2018-08-17T08:06:18.207Z,44.00
2018-08-17T08:08:46.456Z,44.00
2018-08-17T08:11:15.510Z,42.90
2018-08-17T08:13:44.593Z,42.90
2018-08-17T08:16:12.713Z,42.80
2018-08-17T08:18:41.736Z,43.60
2018-08-17T08:21:09.982Z,42.90
2018-08-17T08:23:39.013Z,42.10
2018-08-17T08:26:07.321Z,42.00
2018-08-17T08:28:36.278Z,43.10
2018-08-17T08:31:04.541Z,43.10
2018-08-17T08:33:32.790Z,41.90
2018-08-17T08:36:01.041Z,41.10
2018-08-17T08:38:30.056Z,40.70
2018-08-17T08:40:58.314Z,40.70
2018-08-17T08:43:26.588Z,40.90
2018-08-17T08:45:54.900Z,40.20
2018-08-17T08:48:23.081Z,40.30
2018-08-17T08:50:51.331Z,38.90
2018-08-17T08:53:19.594Z,38.80
2018-08-17T08:55:47.847Z,40.20
2018-08-17T08:58:16.084Z,39.50
2018-08-17T09:00:44.354Z,38.60
2018-08-17T09:03:12.637Z,38.60
2018-08-17T09:05:41.652Z,38.40
2018-08-17T09:08:09.964Z,38.20
2018-08-17T09:10:38.150Z,38.50
2018-08-17T09:13:07.170Z,38.80
2018-08-17T09:15:36.588Z,37.50
2018-08-17T09:18:04.857Z,37.50
2018-08-17T09:20:33.144Z,37.50
2018-08-17T09:23:02.130Z,37.70
2018-08-17T09:25:30.374Z,38.40
2018-08-17T09:27:59.394Z,37.20
2018-08-17T09:30:27.656Z,37.30
2018-08-17T09:32:55.901Z,37.20
2018-08-17T09:35:24.171Z,37.90
2018-08-17T09:37:52.424Z,38.00
2018-08-17T09:40:20.961Z,36.60
2018-08-17T09:42:49.227Z,34.90
2018-08-17T09:45:18.221Z,35.90
2018-08-17T09:47:46.479Z,35.90
2018-08-17T09:50:15.488Z,35.50
2018-08-17T09:52:44.087Z,35.00
2018-08-17T09:55:12.334Z,35.20
2018-08-17T09:57:41.390Z,35.00
2018-08-17T10:00:09.597Z,35.00
2018-08-17T10:02:38.615Z,35.70
2018-08-17T10:05:06.883Z,35.60
2018-08-17T10:07:51.685Z,33.90
2018-08-17T10:10:19.930Z,33.80
2018-08-17T10:12:48.175Z,33.70
2018-08-17T10:15:16.830Z,34.80
2018-08-17T10:17:45.082Z,33.60
2018-08-17T10:20:13.334Z,33.80
2018-08-17T10:22:41.591Z,34.20
2018-08-17T10:25:10.593Z,32.40
2018-08-17T10:27:39.625Z,32.40
2018-08-17T10:30:07.890Z,32.30
2018-08-17T10:32:36.136Z,33.30
2018-08-17T10:35:04.397Z,32.70
2018-08-17T10:37:32.638Z,32.50
2018-08-17T10:40:00.880Z,32.10
2018-08-17T10:42:29.123Z,32.40
2018-08-17T10:44:58.143Z,31.10
2018-08-17T10:47:26.426Z,31.00
2018-08-17T10:49:55.407Z,30.00
2018-08-17T10:52:23.687Z,30.00
2018-08-17T10:54:51.912Z,31.30
2018-08-17T10:57:20.214Z,30.20
2018-08-17T10:59:48.427Z,29.80
2018-08-17T11:02:16.672Z,30.30
2018-08-17T11:04:44.959Z,30.60
2018-08-17T11:07:13.936Z,31.10
2018-08-17T11:09:42.194Z,31.10
2018-08-17T11:12:11.195Z,30.60
2018-08-17T11:14:40.198Z,31.50
2018-08-17T11:17:08.689Z,31.40
2018-08-17T11:19:36.824Z,31.80
2018-08-17T11:22:05.067Z,29.60
2018-08-17T11:24:33.320Z,29.20
2018-08-17T11:27:01.648Z,30.10
2018-08-17T11:29:29.910Z,30.40
2018-08-17T11:31:58.157Z,29.60
2018-08-17T11:34:26.420Z,31.20
2018-08-17T11:36:54.670Z,29.50
2018-08-17T11:39:22.911Z,30.80
2018-08-17T11:41:51.153Z,30.40
2018-08-17T11:44:19.723Z,29.70
2018-08-17T11:46:48.267Z,28.50
2018-08-17T11:49:17.268Z,28.60
2018-08-17T11:51:45.684Z,28.50
2018-08-17T11:54:14.147Z,28.70
2018-08-17T11:56:42.397Z,29.40
2018-08-17T11:59:10.659Z,29.40
2018-08-17T12:01:38.920Z,28.40
2018-08-17T12:04:07.187Z,27.80
2018-08-17T12:06:35.449Z,28.90
2018-08-17T12:09:03.701Z,27.80
2018-08-17T12:11:32.273Z,27.90
2018-08-17T12:14:00.527Z,28.70
2018-08-17T12:16:29.546Z,29.70
2018-08-17T12:18:57.812Z,29.70
2018-08-17T12:21:26.061Z,28.40
2018-08-17T12:23:55.091Z,28.50
2018-08-17T12:26:23.348Z,28.40
2018-08-17T12:28:51.639Z,28.80
2018-08-17T12:31:19.883Z,27.80
2018-08-17T12:33:49.059Z,28.00
2018-08-17T12:36:17.303Z,28.00
2018-08-17T12:38:45.577Z,28.70
2018-08-17T12:41:13.874Z,28.50
2018-08-17T12:43:42.136Z,28.20
2018-08-17T12:46:10.412Z,27.50
2018-08-17T12:48:38.665Z,27.20
2018-08-17T12:51:06.913Z,27.50
2018-08-17T12:53:35.167Z,29.70
2018-08-17T12:56:04.206Z,27.50
2018-08-17T12:58:32.456Z,27.40
2018-08-17T13:01:00.720Z,27.00
2018-08-17T13:03:29.730Z,28.50
2018-08-17T13:05:58.014Z,28.50
2018-08-17T13:08:26.267Z,26.40
2018-08-17T13:10:55.371Z,28.70
2018-08-17T13:13:23.551Z,28.70
2018-08-17T13:15:51.819Z,26.30
2018-08-17T13:18:20.080Z,25.30
2018-08-17T13:20:49.097Z,28.10
2018-08-17T13:23:17.572Z,28.00
2018-08-17T13:25:45.882Z,25.20
2018-08-17T13:28:14.136Z,25.90
2018-08-17T13:30:42.642Z,25.90
2018-08-17T13:33:10.909Z,26.30
2018-08-17T13:35:39.174Z,26.60
2018-08-17T13:38:07.446Z,26.50
2018-08-17T13:40:35.719Z,27.50
2018-08-17T13:43:03.976Z,27.00
2018-08-17T13:45:32.989Z,26.10
2018-08-17T13:48:01.491Z,26.00
2018-08-17T13:50:29.751Z,25.70
2018-08-17T13:52:58.010Z,27.40
2018-08-17T13:55:26.311Z,26.50
2018-08-17T13:57:54.515Z,27.00
2018-08-17T14:00:22.800Z,27.60
2018-08-17T14:02:51.044Z,28.00
2018-08-17T14:05:20.212Z,27.00
2018-08-17T14:07:48.460Z,26.90
2018-08-17T14:10:16.716Z,28.10
2018-08-17T14:12:45.766Z,26.50
2018-08-17T14:15:14.025Z,26.50
2018-08-17T14:17:42.280Z,27.40
2018-08-17T14:20:10.555Z,26.10
2018-08-17T14:22:38.869Z,25.30
2018-08-17T14:25:07.361Z,26.30
2018-08-17T14:27:35.636Z,25.30
2018-08-17T14:30:04.703Z,24.90
2018-08-17T14:32:32.950Z,24.80
2018-08-17T14:35:01.205Z,27.00
2018-08-17T14:37:30.370Z,25.10
2018-08-17T14:39:58.640Z,25.10
2018-08-17T14:42:26.898Z,27.30
2018-08-17T14:44:55.189Z,26.60
2018-08-17T14:47:23.565Z,27.00
2018-08-17T14:49:51.884Z,28.10
2018-08-17T14:52:20.132Z,27.40
2018-08-17T14:54:48.450Z,27.00
2018-08-17T14:57:17.464Z,28.20
2018-08-17T14:59:46.063Z,28.20
2018-08-17T15:02:14.322Z,28.00
2018-08-17T15:04:42.573Z,27.60
2018-08-17T15:07:10.881Z,28.50
2018-08-17T15:09:39.146Z,26.90
2018-08-17T15:12:07.404Z,28.00
2018-08-17T15:14:36.423Z,27.80
2018-08-17T15:17:04.670Z,27.80
2018-08-17T15:19:33.288Z,28.90
2018-08-17T15:22:01.558Z,29.00
2018-08-17T15:24:29.790Z,28.60
2018-08-17T15:26:58.817Z,29.00
2018-08-17T15:29:27.076Z,29.00
2018-08-17T15:31:55.332Z,30.00
2018-08-17T15:34:24.368Z,29.60
2018-08-17T15:36:52.700Z,29.60
2018-08-17T15:39:21.723Z,30.00
2018-08-17T15:41:50.330Z,29.90
2018-08-17T15:44:18.579Z,30.00
2018-08-17T15:46:46.826Z,30.00
2018-08-17T15:49:15.854Z,31.30
2018-08-17T15:51:44.127Z,31.30
2018-08-17T15:54:12.419Z,30.80
2018-08-17T15:56:40.675Z,32.20
2018-08-17T15:59:09.706Z,32.20
2018-08-17T16:01:37.981Z,32.40
2018-08-17T16:04:06.257Z,32.40
2018-08-17T16:06:34.526Z,32.60
2018-08-17T16:09:02.795Z,33.00
2018-08-17T16:11:31.090Z,33.60
2018-08-17T16:13:59.354Z,34.40
2018-08-17T16:16:27.739Z,34.00
2018-08-17T16:18:55.955Z,34.20
2018-08-17T16:21:25.011Z,34.70
2018-08-17T16:23:53.257Z,34.70
2018-08-17T16:26:21.533Z,34.90
2018-08-17T16:28:49.808Z,35.10
2018-08-17T16:31:18.105Z,35.40
2018-08-17T16:33:46.378Z,35.80
2018-08-17T16:36:14.651Z,36.30
2018-08-17T16:38:42.921Z,36.40
2018-08-17T16:41:11.179Z,36.30
2018-08-17T16:43:39.445Z,35.80
2018-08-17T16:46:07.690Z,36.10
2018-08-17T16:48:36.987Z,36.00
2018-08-17T16:51:06.014Z,35.40
2018-08-17T16:53:35.220Z,35.40
2018-08-17T16:56:03.498Z,35.40
2018-08-17T16:58:31.756Z,34.10
2018-08-17T17:01:00.069Z,33.50
2018-08-17T17:03:28.284Z,33.50
2018-08-17T17:05:57.332Z,34.40
2018-08-17T17:08:25.575Z,34.30
2018-08-17T17:10:53.833Z,35.80
2018-08-17T17:13:22.074Z,34.60
2018-08-17T17:15:50.365Z,34.60
2018-08-17T17:18:19.400Z,35.10
2018-08-17T17:20:47.698Z,35.10
2018-08-17T17:23:15.916Z,34.20
2018-08-17T17:28:58.989Z,35.10
2018-08-17T17:31:27.223Z,35.10
2018-08-17T17:33:56.234Z,35.90
2018-08-17T17:36:24.809Z,35.90
2018-08-17T17:38:53.073Z,36.40
2018-08-17T17:41:21.327Z,36.90
2018-08-17T17:43:49.612Z,36.80
2018-08-17T17:46:17.846Z,35.90
2018-08-17T17:48:46.122Z,35.70
2018-08-17T17:51:14.402Z,35.50
2018-08-17T17:53:42.819Z,36.70
2018-08-17T17:56:11.079Z,36.70
2018-08-17T17:58:39.343Z,38.60
2018-08-17T18:01:07.601Z,39.70
2018-08-17T18:03:35.844Z,40.60
2018-08-17T18:06:04.101Z,40.90
2018-08-17T18:08:33.119Z,41.20
2018-08-17T18:11:01.382Z,41.20
2018-08-17T18:13:29.657Z,41.90
2018-08-17T18:15:57.911Z,42.70
2018-08-17T18:18:27.039Z,42.70
2018-08-17T18:20:55.286Z,42.60
2018-08-17T18:23:24.320Z,42.80
2018-08-17T18:25:52.581Z,42.80
2018-08-17T18:28:20.846Z,42.10
2018-08-17T18:30:49.145Z,41.60
2018-08-17T18:33:17.407Z,42.00
2018-08-17T18:35:45.674Z,42.60
2018-08-17T18:38:13.970Z,42.80
2018-08-17T18:40:42.202Z,42.80
2018-08-17T18:43:11.234Z,42.90
2018-08-17T18:45:39.494Z,42.80
2018-08-17T18:48:07.754Z,43.40
2018-08-17T18:50:36.913Z,44.30
2018-08-17T18:53:05.175Z,43.90
2018-08-17T18:55:33.438Z,43.90
2018-08-17T18:58:01.712Z,44.00
2018-08-17T19:00:30.554Z,44.60
2018-08-17T19:02:59.704Z,45.40
2018-08-17T19:05:27.982Z,45.40
2018-08-17T19:07:56.209Z,46.40
2018-08-17T19:10:25.288Z,46.70
2018-08-17T19:12:53.521Z,46.70
2018-08-17T19:15:21.788Z,47.80
2018-08-17T19:17:50.035Z,47.90
2018-08-17T19:20:18.304Z,47.80
2018-08-17T19:22:47.316Z,48.60
2018-08-17T19:25:15.774Z,48.50
2018-08-17T19:27:44.098Z,48.20
2018-08-17T19:30:13.117Z,48.80
2018-08-17T19:32:41.346Z,48.70
2018-08-17T19:35:09.607Z,48.70
2018-08-17T19:37:37.870Z,48.70
2018-08-17T19:40:06.884Z,49.10
2018-08-17T19:42:35.152Z,49.10
2018-08-17T19:45:03.400Z,48.70
2018-08-17T19:47:32.442Z,48.70
2018-08-17T19:50:00.759Z,48.60
2018-08-17T19:52:28.950Z,48.80
2018-08-17T19:54:57.978Z,49.20
2018-08-17T19:57:26.251Z,49.10
2018-08-17T19:59:54.497Z,49.50
2018-08-17T20:02:23.537Z,50.70
2018-08-17T20:04:51.850Z,50.70
2018-08-17T20:07:20.089Z,50.50
2018-08-17T20:09:48.348Z,50.40
2018-08-17T20:12:16.604Z,50.90
2018-08-17T20:14:44.875Z,51.10
2018-08-17T20:17:13.142Z,51.40
2018-08-17T20:19:41.418Z,51.80
2018-08-17T20:22:10.733Z,51.30
2018-08-17T20:24:39.716Z,51.60
2018-08-17T20:27:07.974Z,51.60
2018-08-17T20:29:36.995Z,51.60
2018-08-17T20:32:05.246Z,51.50
2018-08-17T20:34:34.257Z,51.80
2018-08-17T20:37:02.510Z,51.80
2018-08-17T20:39:30.831Z,51.90
2018-08-17T20:41:59.080Z,51.70
2018-08-17T20:44:27.346Z,51.50
2018-08-17T20:46:55.661Z,51.70
2018-08-17T20:49:23.914Z,52.00
2018-08-17T20:51:52.172Z,52.50
2018-08-17T20:54:20.430Z,52.00
2018-08-17T20:56:49.448Z,52.10
2018-08-17T20:59:17.755Z,52.00
2018-08-17T21:01:45.998Z,52.40
2018-08-17T21:04:14.247Z,52.30
2018-08-17T21:06:43.282Z,52.70
2018-08-17T21:09:12.146Z,52.70
2018-08-17T21:11:41.153Z,52.80
2018-08-17T21:14:09.425Z,52.70
2018-08-17T21:16:37.666Z,53.00
2018-08-17T21:19:05.915Z,53.60
2018-08-17T21:21:34.186Z,53.30
2018-08-17T21:24:02.442Z,53.80
2018-08-17T21:26:30.696Z,53.80
2018-08-17T21:28:58.983Z,53.80
2018-08-17T21:31:27.962Z,54.70
2018-08-17T21:33:56.215Z,53.80
2018-08-17T21:36:25.242Z,53.80
2018-08-17T21:38:53.491Z,53.80
2018-08-17T21:41:22.512Z,53.70
2018-08-17T21:43:50.767Z,53.70
2018-08-17T21:46:19.773Z,53.70
2018-08-17T21:48:48.010Z,53.60
2018-08-17T21:51:17.050Z,54.00
2018-08-17T21:53:45.458Z,53.70
2018-08-17T21:56:13.707Z,53.60
2018-08-17T21:58:41.952Z,53.60
2018-08-17T22:01:10.837Z,53.60
2018-08-17T22:03:39.046Z,53.60
2018-08-17T22:06:07.301Z,53.50
2018-08-17T22:08:35.551Z,53.50
2018-08-17T22:11:04.571Z,53.90
2018-08-17T22:13:32.829Z,53.80
2018-08-17T22:16:01.851Z,53.50
2018-08-17T22:18:30.405Z,53.50
2018-08-17T22:20:58.597Z,53.50
2018-08-17T22:23:26.854Z,53.50
2018-08-17T22:25:55.867Z,53.40
2018-08-17T22:28:24.109Z,53.30
2018-08-17T22:30:53.282Z,53.30
2018-08-17T22:33:21.533Z,53.40
2018-08-17T22:35:49.823Z,52.30
2018-08-17T22:38:18.049Z,52.60
2018-08-17T22:40:47.319Z,52.10
2018-08-17T22:43:15.573Z,52.10
2018-08-17T22:45:43.812Z,51.80
2018-08-17T22:48:12.410Z,52.10
2018-08-17T22:50:40.569Z,52.60
2018-08-17T22:53:08.825Z,53.10
2018-08-17T22:55:37.093Z,52.70
2018-08-17T22:58:06.105Z,53.10
2018-08-17T23:00:34.374Z,53.10
2018-08-17T23:03:02.628Z,53.10
2018-08-17T23:05:31.843Z,53.30
2018-08-17T23:08:00.084Z,52.40
2018-08-17T23:10:28.335Z,52.30
2018-08-17T23:12:56.587Z,52.00
2018-08-17T23:15:24.832Z,52.40
2018-08-17T23:17:53.095Z,51.90
2018-08-17T23:20:22.136Z,51.50
2018-08-17T23:22:50.396Z,51.50
2018-08-17T23:25:18.664Z,51.50
2018-08-17T23:30:22.278Z,50.60
2018-08-17T23:32:50.541Z,50.60
2018-08-17T23:35:19.551Z,50.70
2018-08-17T23:37:48.561Z,50.60
2018-08-17T23:40:16.811Z,50.40
2018-08-17T23:42:45.076Z,50.80
2018-08-17T23:45:14.077Z,50.50
2018-08-17T23:47:42.331Z,50.40
2018-08-17T23:50:11.452Z,50.30
2018-08-17T23:52:39.706Z,50.30
2018-08-17T23:55:08.734Z,50.70
2018-08-17T23:57:36.975Z,50.70
